Warning: session_start() [function.session-start]: open(/home/content/96/14010696/tmp/sess_fe0enla4nijbenq81r7kopimk1, O_RDWR) failed: No such file or directory (2) in /home/content/96/14010696/html/weather/Settings.php on line 336

Warning: session_start() [function.session-start]: Cannot send session cookie - headers already sent by (output started at /home/content/96/14010696/html/weather/Settings.php:336) in /home/content/96/14010696/html/weather/Settings.php on line 336

Warning: session_start() [function.session-start]: Cannot send session cache limiter - headers already sent (output started at /home/content/96/14010696/html/weather/Settings.php:336) in /home/content/96/14010696/html/weather/Settings.php on line 336

Warning: Cannot modify header information - headers already sent by (output started at /home/content/96/14010696/html/weather/Settings.php:336) in /home/content/96/14010696/html/weather/top.php on line 43
Custom file does not exist C:\wdisplay\webfiles\testtags.txt Page13Designs.com - Nearby METAR Reports

Nearby METAR Reports

 

KLEE - Leesburg, Florida, USA
Distance from station: NNE 9mi, 14km
Updated: Mon, 21-Jan-2019 9:53pm EST
Clear
Clear
 Wind from NNW
Wind: NNW 7 mph , 11 km/h
Temperature: 43°F , 6°C
Wind Chill: 39°F , 4°C
Dew Point: 37°F , 3°C
Humidity: 81%
Barometer: 30.40 inHg , 1029.5 hPa
Clouds: Clear
Visibility: 10 miles , 16 km
2019/01/22 02:53 KLEE 220253Z AUTO 34006KT 10SM CLR 06/03 A3040 RMK AO2 SLP294 T00560033 51007
KVVG - The Villages, Florida, USA
Distance from station: NNW 19mi, 30km
Updated: Wed, 14-Feb-2018 2:10pm EST
NOT Current

 Wind from calm
Wind: Calm
Temperature: 73°F , 23°C
Dew Point: 66°F , 19°C
Humidity: 78%
Barometer: 30.29 inHg , 1025.7 hPa
Visibility: 10 miles , 16 km
2018/02/14 19:10 KVVG 141910Z AUTO 00000KT 10SM 23/19 A3029 RMK A01
 
KINF - Inverness, Florida, USA
Distance from station: WNW 29mi, 46km
Updated: Mon, 21-Jan-2019 9:55pm EST
Clear
Clear
 Wind from calm
Wind: Calm
Temperature: 41°F , 5°C
Dew Point: 41°F , 5°C
Humidity: 100%
Barometer: 30.41 inHg , 1029.8 hPa
Clouds: Clear
Visibility: 10 miles , 16 km
2019/01/22 02:55 KINF 220255Z AUTO 00000KT 10SM CLR 05/05 A3041 RMK AO2
KORL - Orlando, Florida, USA
Distance from station: ESE 34mi, 54km
Updated: Mon, 21-Jan-2019 9:53pm EST
Clear
Clear
 Wind from NW
Wind: NW 3 mph , 6 km/h
Temperature: 48°F , 9°C
Dew Point: 41°F , 5°C
Humidity: 76%
Barometer: 30.37 inHg , 1028.4 hPa
Clouds: Clear
Visibility: 10 miles , 16 km
2019/01/22 02:53 KORL 220253Z AUTO 32003KT 10SM CLR 09/05 A3037 RMK AO2 SLP290 T00890050 51006
 
KZPH - Zephyrhills, Florida, USA
Distance from station: SSW 36mi, 59km
Updated: Mon, 21-Jan-2019 10:15pm EST
Clear
Clear
 Wind from calm
Wind: Calm
Temperature: 46°F , 8°C
Dew Point: 41°F , 5°C
Humidity: 82%
Barometer: 30.40 inHg , 1029.5 hPa
Clouds: Clear
Visibility: 10 miles , 16 km
2019/01/22 03:15 KZPH 220315Z AUTO 00000KT 10SM CLR 08/05 A3040 RMK AO2 T00760045
KMCO - Orlando, Florida, USA
Distance from station: ESE 37mi, 60km
Updated: Mon, 21-Jan-2019 9:53pm EST
Clear
Clear
 Wind from NNW
Wind: NNW 8 mph , 13 km/h
Temperature: 48°F , 9°C
Wind Chill: 44°F , 7°C
Dew Point: 43°F , 6°C
Humidity: 82%
Barometer: 30.37 inHg , 1028.4 hPa
Clouds: Clear
Visibility: 10 miles , 16 km
2019/01/22 02:53 KMCO 220253Z 34007KT 10SM CLR 09/06 A3037 RMK AO2 SLP285 T00890056 50006
 
KISM - Kissimmee/Orland, Florida, USA
Distance from station: SE 39mi, 62km
Updated: Mon, 21-Jan-2019 9:56pm EST
Clear
Clear
 Wind from NW
Wind: NW 3 mph , 6 km/h
Temperature: 46°F , 8°C
Dew Point: 43°F , 6°C
Humidity: 87%
Barometer: 30.39 inHg , 1029.1 hPa
Clouds: Clear
Visibility: 10 miles , 16 km
2019/01/22 02:56 KISM 220256Z AUTO 32003KT 10SM CLR 08/06 A3039 RMK AO2 SLP294 6//// T00830056 51008 PNO $
KBKV - Brooksville, Florida, USA
Distance from station: WSW 39mi, 63km
Updated: Mon, 21-Jan-2019 9:53pm EST
Clear
Clear
 Wind from NE
Wind: NE 5 mph , 7 km/h
Temperature: 45°F , 7°C
Wind Chill: 42°F , 6°C
Dew Point: 37°F , 3°C
Humidity: 76%
Barometer: 30.40 inHg , 1029.5 hPa
Clouds: Clear
Visibility: 10 miles , 16 km
2019/01/22 02:53 KBKV 220253Z AUTO 05004KT 10SM CLR 07/03 A3040 RMK AO2 SLP293 T00670033 51018
 
KOCF - Ocala Muni, Florida, USA
Distance from station: NW 39mi, 63km
Updated: Mon, 21-Jan-2019 9:51pm EST
Clear
Clear
 Wind from N
Wind: N 3 mph , 6 km/h
Temperature: 41°F , 5°C
Dew Point: 36°F , 2°C
Humidity: 81%
Barometer: 30.41 inHg , 1029.8 hPa
Clouds: Clear
Visibility: 10 miles , 16 km
2019/01/22 02:51 KOCF 220251Z AUTO 36003KT 10SM CLR 05/02 A3041 RMK AO2 SLP302 T00500022 51013 $
KSFB - Sanford/Orlando, Florida, USA
Distance from station: E 39mi, 63km
Updated: Mon, 21-Jan-2019 9:53pm EST
Clear
Clear
 Wind from NNW
Wind: NNW 6 mph , 9 km/h
Temperature: 46°F , 8°C
Wind Chill: 43°F , 6°C
Dew Point: 43°F , 6°C
Humidity: 87%
Barometer: 30.37 inHg , 1028.4 hPa
Clouds: Clear
Visibility: 10 miles , 16 km
2019/01/22 02:53 KSFB 220253Z 33005KT 10SM CLR 08/06 A3037 RMK AO2 SLP285 T00830061 50004 $
 
KDED - Deland, Florida, USA
Distance from station: NE 43mi, 70km
Updated: Mon, 21-Jan-2019 9:55pm EST
Clear
Clear
 Wind from NNW
Wind: NNW 6 mph , 9 km/h
Temperature: 43°F , 6°C
Wind Chill: 39°F , 4°C
Dew Point: 41°F , 5°C
Humidity: 93%
Barometer: 30.38 inHg , 1028.8 hPa
Clouds: Clear
Visibility: 10 miles , 16 km
2019/01/22 02:55 KDED 220255Z AUTO 34005KT 10SM CLR 06/05 A3038 RMK AO2
KCGC - Crystal River, Florida, USA
Distance from station: WNW 44mi, 71km
Updated: Mon, 21-Jan-2019 9:55pm EST
Clear
Clear
 Wind from calm
Wind: Calm
Temperature: 43°F , 6°C
Dew Point: 36°F , 2°C
Humidity: 76%
Barometer: 30.41 inHg , 1029.8 hPa
Clouds: Clear
Visibility: 10 miles , 16 km
2019/01/22 02:55 KCGC 220255Z AUTO 00000KT 10SM CLR 06/02 A3041 RMK AO2
 
KGIF - Winter Haven, Florida, USA
Distance from station: S 44mi, 71km
Updated: Mon, 21-Jan-2019 9:53pm EST
Clear
Clear
 Wind from calm
Wind: Calm
Temperature: 48°F , 9°C
Dew Point: 41°F , 5°C
Humidity: 76%
Barometer: 30.39 inHg , 1029.1 hPa
Clouds: Clear
Visibility: 10 miles , 16 km
2019/01/22 02:53 KGIF 220253Z AUTO 00000KT 10SM CLR 09/05 A3039 RMK AO2 SLP291 T00940050 50016